createdAt,value
2022-09-23T00:02:10.601Z,18570.22
2022-09-23T00:04:38.633Z,18602.75
2022-09-23T00:07:06.657Z,18558.03
2022-09-23T00:09:34.773Z,18517.41
2022-09-23T00:12:08.870Z,18553.97
2022-09-23T00:14:39.580Z,18517.41
2022-09-23T00:17:07.841Z,18511.31
2022-09-23T00:19:36.236Z,18509.28
2022-09-23T00:22:04.453Z,18521.47
2022-09-23T00:24:33.259Z,18531.63
2022-09-23T00:27:02.845Z,18511.31
2022-09-23T00:29:31.836Z,18535.69
2022-09-23T00:31:59.801Z,18527.56
2022-09-23T00:34:27.859Z,18519.44
2022-09-23T00:36:55.847Z,18515.38
2022-09-23T00:39:24.379Z,18543.81
2022-09-23T00:41:52.795Z,18531.63
2022-09-23T00:44:47.058Z,18509.28
2022-09-23T00:47:24.599Z,18513.34
2022-09-23T00:50:03.356Z,18474.75
2022-09-23T00:52:32.581Z,18450.38
2022-09-23T00:55:06.417Z,18501.16
2022-09-23T00:57:37.082Z,18484.91
2022-09-23T01:00:09.203Z,18505.22
2022-09-23T01:02:38.486Z,18464.59
2022-09-23T01:05:09.015Z,18476.78
2022-09-23T01:07:37.014Z,18464.59
2022-09-23T01:10:07.339Z,18444.28
2022-09-23T01:12:59.416Z,18438.19
2022-09-23T01:15:40.773Z,18452.41
2022-09-23T01:18:26.502Z,18452.41
2022-09-23T01:21:06.222Z,18456.47
2022-09-23T01:24:29.937Z,18456.47
2022-09-23T01:27:17.394Z,18438.19
2022-09-23T01:30:29.531Z,18468.66
2022-09-23T01:33:14.161Z,18421.91
2022-09-23T01:35:55.032Z,18432.09
2022-09-23T01:38:36.040Z,18423.94
2022-09-23T01:41:17.089Z,18407.69
2022-09-23T01:43:58.803Z,18377.22
2022-09-23T01:46:33.955Z,18428.03
2022-09-23T01:49:14.267Z,18407.69
2022-09-23T01:51:49.249Z,18352.84
2022-09-23T01:54:26.577Z,18389.41
2022-09-23T01:57:01.821Z,18387.38
2022-09-23T01:59:37.859Z,18389.41
2022-09-23T02:02:15.200Z,18391.44
2022-09-23T02:04:54.144Z,18350.81
2022-09-23T02:07:32.912Z,18401.59
2022-09-23T02:10:11.129Z,18383.31
2022-09-23T02:12:45.494Z,18365.03
2022-09-23T02:15:20.050Z,18350.81
2022-09-23T02:17:54.739Z,18387.38
2022-09-23T02:20:31.293Z,18375.19
2022-09-23T02:23:08.582Z,18346.75
2022-09-23T02:25:50.844Z,18367.06
2022-09-23T02:28:28.299Z,18377.22
2022-09-23T02:31:08.603Z,18350.81
2022-09-23T02:33:43.575Z,18371.13
2022-09-23T02:36:26.024Z,18373.16
2022-09-23T02:38:59.083Z,18310.19
2022-09-23T02:41:36.752Z,18377.22
2022-09-23T02:44:09.953Z,18363.00
2022-09-23T02:46:38.781Z,18322.38
2022-09-23T02:49:14.977Z,18330.50
2022-09-23T02:51:45.494Z,18324.41
2022-09-23T02:54:19.306Z,18342.69
2022-09-23T02:56:49.453Z,18326.44
2022-09-23T02:59:20.433Z,18314.25
2022-09-23T03:02:14.025Z,18328.47
2022-09-23T03:04:56.972Z,18310.19
2022-09-23T03:07:36.908Z,18314.25
2022-09-23T03:10:16.412Z,18314.25
2022-09-23T03:13:05.900Z,18285.81
2022-09-23T03:15:42.023Z,18322.38
2022-09-23T03:18:19.206Z,18312.22
2022-09-23T03:20:53.516Z,18295.97
2022-09-23T03:23:29.905Z,18283.78
2022-09-23T03:26:05.713Z,18277.69
2022-09-23T03:28:37.104Z,18271.59
2022-09-23T03:31:06.669Z,18300.03
2022-09-23T03:33:39.652Z,18295.97
2022-09-23T03:36:26.599Z,18285.81
2022-09-23T03:39:06.801Z,18310.19
2022-09-23T03:41:43.879Z,18237.06
2022-09-23T03:44:12.683Z,18271.59
2022-09-23T03:46:42.849Z,18263.47
2022-09-23T03:49:17.923Z,18289.88
2022-09-23T03:51:45.901Z,18312.22
2022-09-23T03:54:15.681Z,18253.31
2022-09-23T03:56:44.133Z,18287.84
2022-09-23T03:59:12.082Z,18298.00
2022-09-23T04:01:41.818Z,18283.78
2022-09-23T04:04:10.440Z,18275.66
2022-09-23T04:06:38.491Z,18269.56
2022-09-23T04:09:06.491Z,18285.81
2022-09-23T04:11:36.056Z,18283.78
2022-09-23T04:14:04.332Z,18253.31
2022-09-23T04:16:32.313Z,18255.34
2022-09-23T04:19:00.307Z,18226.88
2022-09-23T04:21:30.155Z,18253.31
2022-09-23T04:23:58.194Z,18235.00
2022-09-23T04:26:26.143Z,18212.66
2022-09-23T04:28:56.902Z,18245.19
2022-09-23T04:31:25.182Z,18222.81
2022-09-23T04:33:54.762Z,18239.09
2022-09-23T04:36:23.612Z,18218.75
2022-09-23T04:38:52.229Z,18239.09
2022-09-23T04:41:23.524Z,18222.81
2022-09-23T04:43:51.540Z,18230.94
2022-09-23T04:46:21.321Z,18230.94
2022-09-23T04:48:49.327Z,18228.91
2022-09-23T04:51:20.561Z,18224.84
2022-09-23T04:53:51.757Z,18224.84
2022-09-23T04:56:22.595Z,18202.50
2022-09-23T04:58:51.738Z,18196.41
2022-09-23T05:01:24.267Z,18204.53
2022-09-23T05:03:54.422Z,18210.63
2022-09-23T05:06:23.756Z,18208.59
2022-09-23T05:08:54.463Z,18198.44
2022-09-23T05:11:24.066Z,18218.75
2022-09-23T05:13:54.907Z,18192.34
2022-09-23T05:16:27.089Z,18247.22
2022-09-23T05:18:55.766Z,18237.06
2022-09-23T05:21:27.406Z,18287.84
2022-09-23T05:24:00.308Z,18265.50
2022-09-23T05:26:31.338Z,18247.22
2022-09-23T05:29:00.481Z,18196.41
2022-09-23T05:31:31.863Z,18251.28
2022-09-23T05:34:01.894Z,18269.56
2022-09-23T05:36:37.582Z,18285.81
2022-09-23T05:39:08.447Z,18273.63
2022-09-23T05:41:38.439Z,18259.41
2022-09-23T05:44:06.640Z,18261.44
2022-09-23T05:46:37.117Z,18247.22
2022-09-23T05:49:05.925Z,18298.00
2022-09-23T05:51:35.722Z,18273.63
2022-09-23T05:54:05.710Z,18300.03
2022-09-23T05:56:35.586Z,18306.13
2022-09-23T05:59:05.831Z,18306.13
2022-09-23T06:01:38.605Z,18314.25
2022-09-23T06:04:14.023Z,18358.94
2022-09-23T06:06:43.594Z,18358.94
2022-09-23T06:09:14.637Z,18379.25
2022-09-23T06:11:43.521Z,18411.75
2022-09-23T06:14:14.732Z,18428.03
2022-09-23T06:16:44.201Z,18444.28
2022-09-23T06:19:12.254Z,18407.69
2022-09-23T06:21:41.391Z,18464.59
2022-09-23T06:24:12.482Z,18491.00
2022-09-23T06:26:42.700Z,18501.16
2022-09-23T06:29:12.920Z,18499.13
2022-09-23T06:31:42.051Z,18535.69
2022-09-23T06:34:14.727Z,18598.69
2022-09-23T06:36:45.807Z,18623.06
2022-09-23T06:39:15.819Z,18627.13
2022-09-23T06:41:45.076Z,18677.91
2022-09-23T06:44:13.249Z,18730.75
2022-09-23T06:46:41.379Z,18887.19
2022-09-23T06:49:11.787Z,18990.81
2022-09-23T06:51:40.234Z,18980.66
2022-09-23T06:54:08.722Z,19011.13
2022-09-23T06:56:39.561Z,19131.03
2022-09-23T06:59:08.945Z,19112.75
2022-09-23T07:01:36.977Z,19098.50
2022-09-23T07:04:05.208Z,19145.25
2022-09-23T07:06:34.587Z,19141.19
2022-09-23T07:09:03.237Z,19165.56
2022-09-23T07:11:31.448Z,19194.03
2022-09-23T07:13:59.525Z,19265.13
2022-09-23T07:16:27.575Z,19236.69
2022-09-23T07:18:56.429Z,19326.09
2022-09-23T07:21:24.449Z,19320.00
2022-09-23T07:23:55.177Z,19431.78
2022-09-23T07:26:23.567Z,19397.22
2022-09-23T07:28:56.349Z,19419.59
2022-09-23T07:31:37.098Z,19468.34
2022-09-23T07:34:07.383Z,19423.66
2022-09-23T07:36:37.325Z,19498.84
2022-09-23T07:39:07.200Z,19541.50
2022-09-23T07:41:35.679Z,19565.91
2022-09-23T07:44:05.975Z,19693.94
2022-09-23T07:46:37.239Z,19657.34
2022-09-23T07:49:06.727Z,19708.16
2022-09-23T07:51:38.215Z,19740.69
2022-09-23T07:54:11.906Z,19811.81
2022-09-23T07:56:40.432Z,19779.28
2022-09-23T07:59:11.724Z,19817.91
2022-09-23T08:01:42.686Z,19793.50
2022-09-23T08:04:14.548Z,19817.91
2022-09-23T08:06:43.762Z,19817.91
2022-09-23T08:09:14.249Z,19856.53
2022-09-23T08:11:42.994Z,19868.72
2022-09-23T08:14:13.433Z,19876.84
2022-09-23T08:16:42.059Z,19842.28
2022-09-23T08:19:10.490Z,19878.88
2022-09-23T08:21:40.342Z,19899.19
2022-09-23T08:24:08.549Z,19891.06
2022-09-23T08:26:38.089Z,19911.41
2022-09-23T08:29:06.781Z,19943.91
2022-09-23T08:31:34.822Z,19994.72
2022-09-23T08:34:03.226Z,20069.94
2022-09-23T08:36:33.051Z,20120.75
2022-09-23T08:39:01.281Z,20118.69
2022-09-23T08:41:40.735Z,20159.34
2022-09-23T08:44:17.396Z,20175.63
2022-09-23T08:46:54.151Z,20220.34
2022-09-23T08:49:29.497Z,20307.72
2022-09-23T08:52:01.008Z,20287.41
2022-09-23T08:54:32.210Z,20305.69
2022-09-23T08:57:06.181Z,20326.03
2022-09-23T08:59:43.027Z,20313.84
2022-09-23T09:02:19.768Z,20328.06
2022-09-23T09:04:54.254Z,20326.03
2022-09-23T09:07:36.792Z,20389.03
2022-09-23T09:10:16.383Z,20370.75
2022-09-23T09:12:48.866Z,20452.06
2022-09-23T09:15:24.323Z,20411.41
2022-09-23T09:18:02.950Z,20423.59
2022-09-23T09:20:57.325Z,20429.69
2022-09-23T09:23:35.856Z,20447.97
2022-09-23T09:26:05.430Z,20502.88
2022-09-23T09:28:41.696Z,20506.94
2022-09-23T09:31:26.829Z,20563.84
2022-09-23T09:34:03.632Z,20602.47
2022-09-23T09:36:45.304Z,20671.59
2022-09-23T09:39:15.572Z,20635.00
2022-09-23T09:41:50.727Z,20655.31
2022-09-23T09:44:28.859Z,20663.47
2022-09-23T09:47:22.037Z,20724.44
2022-09-23T09:50:00.645Z,20681.75
2022-09-23T09:52:31.694Z,20756.97
2022-09-23T09:55:26.701Z,20728.50
2022-09-23T09:58:01.737Z,20710.22
2022-09-23T10:00:43.824Z,20736.63
2022-09-23T10:03:40.706Z,20842.34
2022-09-23T10:06:19.422Z,20878.94
2022-09-23T10:09:19.148Z,20850.47
2022-09-23T10:12:15.258Z,20840.31
2022-09-23T10:14:43.899Z,20836.25
2022-09-23T10:17:21.696Z,20838.28
2022-09-23T10:20:00.231Z,20811.84
2022-09-23T10:22:34.399Z,20846.41
2022-09-23T10:25:09.830Z,20822.03
2022-09-23T10:27:38.824Z,20777.28
2022-09-23T10:30:22.212Z,20815.91
2022-09-23T10:32:54.859Z,20820.00
2022-09-23T10:35:25.483Z,20870.81
2022-09-23T10:37:55.621Z,20850.47
2022-09-23T10:40:49.824Z,20858.59
2022-09-23T10:43:45.971Z,20864.72
2022-09-23T10:46:39.505Z,20907.41
2022-09-23T10:49:48.888Z,20901.31
2022-09-23T10:52:45.442Z,20913.50
2022-09-23T10:55:34.361Z,20923.66
2022-09-23T10:58:28.806Z,20937.91
2022-09-23T11:01:17.048Z,20923.66
2022-09-23T11:04:42.227Z,20941.97
2022-09-23T11:07:25.170Z,20933.81
2022-09-23T11:10:35.258Z,20909.44
2022-09-23T11:13:24.507Z,20974.50
2022-09-23T11:16:06.487Z,20992.78
2022-09-23T11:19:00.622Z,21017.19
2022-09-23T11:22:01.182Z,20976.53
2022-09-23T11:24:50.095Z,21015.16
2022-09-23T11:27:37.170Z,21108.66
2022-09-23T11:30:11.674Z,21023.28
2022-09-23T11:33:26.937Z,21031.41
2022-09-23T11:36:03.344Z,20978.56
2022-09-23T11:38:41.285Z,21004.97
2022-09-23T11:41:20.685Z,20984.66
2022-09-23T11:43:54.132Z,21013.13
2022-09-23T11:46:36.568Z,21033.44
2022-09-23T11:49:13.960Z,20944.00
2022-09-23T11:51:54.477Z,20909.44
2022-09-23T11:54:29.680Z,20946.03
2022-09-23T11:57:07.508Z,20923.66
2022-09-23T11:59:46.202Z,20897.25
2022-09-23T12:02:30.477Z,20911.47
2022-09-23T12:05:06.759Z,20878.94
2022-09-23T12:07:53.313Z,20878.94
2022-09-23T12:10:24.887Z,20897.25
2022-09-23T12:13:06.440Z,20919.59
2022-09-23T12:15:53.336Z,20978.56
2022-09-23T12:18:47.549Z,20911.47
2022-09-23T12:21:53.312Z,20954.16
2022-09-23T12:24:51.529Z,20921.63
2022-09-23T12:27:33.557Z,20874.88
2022-09-23T12:30:13.326Z,20909.44
2022-09-23T12:32:43.010Z,20952.13
2022-09-23T12:35:24.853Z,20980.59
2022-09-23T12:37:53.995Z,20992.78
2022-09-23T12:40:38.949Z,21049.72
2022-09-23T12:43:07.109Z,21102.56
2022-09-23T12:45:41.438Z,21098.50
2022-09-23T12:48:45.179Z,21163.56
2022-09-23T12:51:20.962Z,21175.75
2022-09-23T12:54:27.423Z,21187.97
2022-09-23T12:57:04.063Z,21196.09
2022-09-23T13:00:16.091Z,21190.00
2022-09-23T13:03:15.130Z,21198.13
2022-09-23T13:06:08.891Z,21143.22
2022-09-23T13:08:42.170Z,21214.38
2022-09-23T13:11:28.347Z,21210.31
2022-09-23T13:13:59.646Z,21196.09
2022-09-23T13:16:34.085Z,21224.56
2022-09-23T13:19:05.414Z,21122.91
2022-09-23T13:22:09.056Z,21108.66
2022-09-23T13:24:46.865Z,21139.16
2022-09-23T13:27:22.978Z,21190.00
2022-09-23T13:30:00.101Z,21151.34
2022-09-23T13:32:33.869Z,21137.13
2022-09-23T13:35:07.453Z,21187.97
2022-09-23T13:37:47.383Z,21226.59
2022-09-23T13:40:23.771Z,21244.88
2022-09-23T13:42:59.076Z,21244.88
2022-09-23T13:45:30.855Z,21224.56
2022-09-23T13:48:07.307Z,21263.19
2022-09-23T13:50:41.539Z,21257.09
2022-09-23T13:53:14.253Z,21261.16
2022-09-23T13:55:42.432Z,21311.97
2022-09-23T13:58:19.877Z,21354.66
2022-09-23T14:00:49.636Z,21381.09
2022-09-23T14:03:24.227Z,21370.94
2022-09-23T14:05:56.289Z,21301.81
2022-09-23T14:08:25.860Z,21226.59
2022-09-23T14:10:55.295Z,21192.03
2022-09-23T14:13:27.961Z,21161.53
2022-09-23T14:15:59.197Z,21112.72
2022-09-23T14:18:40.046Z,21065.97
2022-09-23T14:21:34.814Z,20986.69
2022-09-23T14:24:19.380Z,20990.75
2022-09-23T14:26:50.663Z,20939.94
2022-09-23T14:29:21.924Z,20937.91
2022-09-23T14:31:57.756Z,21004.97
2022-09-23T14:34:48.430Z,21029.38
2022-09-23T14:37:47.425Z,21021.25
2022-09-23T14:40:19.910Z,21047.69
2022-09-23T14:42:52.362Z,21019.22
2022-09-23T14:45:26.317Z,20980.59
2022-09-23T14:48:00.564Z,20996.84
2022-09-23T14:50:39.606Z,20941.97
2022-09-23T14:53:40.279Z,20895.19
2022-09-23T14:56:19.048Z,20929.75
2022-09-23T14:58:56.773Z,20903.34
2022-09-23T15:01:36.530Z,20903.34
2022-09-23T15:04:32.245Z,20878.94
2022-09-23T15:07:07.516Z,20935.88
2022-09-23T15:09:41.607Z,20909.44
2022-09-23T15:12:16.327Z,20897.25
2022-09-23T15:14:50.594Z,20958.22
2022-09-23T15:17:32.499Z,20939.94
2022-09-23T15:20:06.184Z,20927.72
2022-09-23T15:22:44.285Z,20907.41
2022-09-23T15:25:20.455Z,20937.91
2022-09-23T15:28:02.403Z,20925.69
2022-09-23T15:30:31.542Z,20941.97
2022-09-23T15:33:00.045Z,20968.38
2022-09-23T15:35:31.960Z,20976.53
2022-09-23T15:38:03.263Z,20952.13
2022-09-23T15:40:35.923Z,20958.22
2022-09-23T15:43:20.632Z,20941.97
2022-09-23T15:45:53.454Z,20927.72
2022-09-23T15:48:26.813Z,20899.28
2022-09-23T15:50:55.822Z,20846.41
2022-09-23T15:53:27.279Z,20826.09
2022-09-23T15:55:58.542Z,20799.66
2022-09-23T15:58:27.618Z,20824.06
2022-09-23T16:00:57.454Z,20732.56
2022-09-23T16:03:28.998Z,20734.59
2022-09-23T16:06:02.264Z,20728.50
2022-09-23T16:08:32.759Z,20726.47
2022-09-23T16:11:02.470Z,20706.16
2022-09-23T16:13:30.473Z,20700.03
2022-09-23T16:15:58.524Z,20695.97
2022-09-23T16:18:26.624Z,20651.25
2022-09-23T16:20:54.755Z,20624.84
2022-09-23T16:23:35.382Z,20630.94
2022-09-23T16:26:08.948Z,20594.34
2022-09-23T16:28:36.928Z,20594.34
2022-09-23T16:31:05.230Z,20574.00
2022-09-23T16:33:33.400Z,20571.97
2022-09-23T16:36:02.099Z,20533.34
2022-09-23T16:38:31.112Z,20529.28
2022-09-23T16:41:00.185Z,20543.53
2022-09-23T16:43:31.560Z,20508.97
2022-09-23T16:45:59.803Z,20464.25
2022-09-23T16:48:27.895Z,20464.25
2022-09-23T16:50:55.891Z,20421.56
2022-09-23T16:53:24.457Z,20419.53
2022-09-23T16:55:53.657Z,20423.59
2022-09-23T16:58:21.669Z,20393.09
2022-09-23T17:01:08.657Z,20409.38
2022-09-23T17:03:42.797Z,20336.19
2022-09-23T17:06:13.217Z,20370.75
2022-09-23T17:08:42.009Z,20311.78
2022-09-23T17:11:11.660Z,20315.88
2022-09-23T17:13:42.262Z,20319.94
2022-09-23T17:16:22.055Z,20307.72
2022-09-23T17:18:50.111Z,20271.16
2022-09-23T17:21:18.452Z,20248.78
2022-09-23T17:23:46.466Z,20265.03
2022-09-23T17:26:15.092Z,20256.91
2022-09-23T17:28:43.032Z,20246.75
2022-09-23T17:31:12.519Z,20238.63
2022-09-23T17:33:41.164Z,20238.63
2022-09-23T17:36:11.626Z,20222.38
2022-09-23T17:38:40.223Z,20191.88
2022-09-23T17:41:09.487Z,20212.19
2022-09-23T17:43:38.441Z,20189.84
2022-09-23T17:46:09.992Z,20232.53
2022-09-23T17:48:43.157Z,20169.53
2022-09-23T17:51:14.697Z,20181.72
2022-09-23T17:53:46.511Z,20147.16
2022-09-23T17:56:19.323Z,20181.72
2022-09-23T17:58:49.555Z,20165.44
2022-09-23T18:01:20.865Z,20169.53
2022-09-23T18:03:55.298Z,20161.38
2022-09-23T18:06:26.038Z,20130.91
2022-09-23T18:08:55.852Z,20124.81
2022-09-23T18:11:26.893Z,20126.84
2022-09-23T18:13:56.964Z,20147.16
2022-09-23T18:16:28.147Z,20143.09
2022-09-23T18:19:00.169Z,20177.66
2022-09-23T18:21:31.739Z,20130.91
2022-09-23T18:26:50.463Z,20090.25
2022-09-23T18:29:19.539Z,20080.09
2022-09-23T18:31:49.132Z,20086.19
2022-09-23T18:34:18.961Z,20080.09
2022-09-23T18:36:47.742Z,20037.41
2022-09-23T18:39:16.687Z,20061.78
2022-09-23T18:41:44.763Z,20043.50
2022-09-23T18:44:12.901Z,20045.53
2022-09-23T18:46:40.962Z,20045.53
2022-09-23T18:49:26.982Z,20078.06
2022-09-23T18:51:58.598Z,20021.16
2022-09-23T18:54:30.330Z,20029.28
2022-09-23T18:56:59.193Z,20043.50
2022-09-23T18:59:29.487Z,20010.97
2022-09-23T19:01:58.636Z,19986.59
2022-09-23T19:04:28.898Z,19978.47
2022-09-23T19:06:58.851Z,19998.78
2022-09-23T19:09:26.861Z,19990.66
2022-09-23T19:11:55.052Z,19952.03
2022-09-23T19:14:23.491Z,19954.06
2022-09-23T19:16:51.927Z,19935.78
2022-09-23T19:19:20.202Z,19941.88
2022-09-23T19:21:48.206Z,19966.28
2022-09-23T19:24:20.040Z,19943.91
2022-09-23T19:26:48.483Z,19933.75
2022-09-23T19:29:21.619Z,19905.28
2022-09-23T19:31:50.957Z,19891.06
2022-09-23T19:34:23.710Z,19921.56
2022-09-23T19:36:52.731Z,19895.13
2022-09-23T19:39:24.465Z,19913.44
2022-09-23T19:41:54.456Z,19927.66
2022-09-23T19:44:25.020Z,19925.63
2022-09-23T19:46:56.831Z,19919.53
2022-09-23T19:49:26.213Z,19935.78
2022-09-23T19:51:56.564Z,19964.25
2022-09-23T19:54:27.334Z,19952.03
2022-09-23T19:56:56.233Z,19962.19
2022-09-23T19:59:26.173Z,19915.47
2022-09-23T20:01:54.245Z,19919.53
2022-09-23T20:04:22.775Z,19927.66
2022-09-23T20:06:50.804Z,19897.16
2022-09-23T20:09:18.872Z,19909.34
2022-09-23T20:11:48.269Z,19917.50
2022-09-23T20:14:17.803Z,19897.16
2022-09-23T20:16:46.194Z,19943.91
2022-09-23T20:19:14.713Z,19905.28
2022-09-23T20:21:42.752Z,19915.47
2022-09-23T20:24:12.301Z,19882.94
2022-09-23T20:26:57.868Z,19915.47
2022-09-23T20:29:27.212Z,19870.75
2022-09-23T20:31:58.598Z,19917.50
2022-09-23T20:34:27.284Z,19903.25
2022-09-23T20:36:55.467Z,19901.22
2022-09-23T20:39:23.460Z,19884.97
2022-09-23T20:41:52.260Z,19905.28
2022-09-23T20:44:20.415Z,19903.25
2022-09-23T20:46:51.247Z,19915.47
2022-09-23T20:49:20.723Z,19911.41
2022-09-23T20:51:49.436Z,19882.94
2022-09-23T20:54:19.075Z,19870.75
2022-09-23T20:56:47.284Z,19884.97
2022-09-23T20:59:17.512Z,19840.25
2022-09-23T21:01:45.591Z,19840.25
2022-09-23T21:04:15.083Z,19852.44
2022-09-23T21:06:43.105Z,19856.53
2022-09-23T21:09:11.120Z,19850.41
2022-09-23T21:11:39.138Z,19813.84
2022-09-23T21:14:07.440Z,19799.63
2022-09-23T21:16:35.787Z,19803.69
2022-09-23T21:19:04.009Z,19842.28
2022-09-23T21:21:33.392Z,19854.50
2022-09-23T21:24:24.550Z,19830.09
2022-09-23T21:26:51.318Z,19811.81
2022-09-23T21:29:19.416Z,19779.28
2022-09-23T21:31:49.471Z,19789.44
2022-09-23T21:34:17.803Z,19738.66
2022-09-23T21:36:49.343Z,19769.13
2022-09-23T21:39:17.620Z,19730.50
2022-09-23T21:41:45.605Z,19742.72
2022-09-23T21:44:13.794Z,19726.44
2022-09-23T21:46:41.920Z,19716.28
2022-09-23T21:49:10.061Z,19698.00
2022-09-23T21:51:41.433Z,19695.97
2022-09-23T21:54:15.588Z,19685.81
2022-09-23T21:56:44.998Z,19671.56
2022-09-23T21:59:13.486Z,19635.00
2022-09-23T22:01:44.865Z,19677.66
2022-09-23T22:04:17.324Z,19651.25
2022-09-23T22:06:46.620Z,19604.50
2022-09-23T22:09:19.396Z,19604.50
2022-09-23T22:12:07.709Z,19606.53
2022-09-23T22:14:38.771Z,19569.97
2022-09-23T22:17:10.458Z,19533.38
2022-09-23T22:19:44.251Z,19521.19
2022-09-23T22:22:17.908Z,19500.88
2022-09-23T22:24:49.066Z,19490.72
2022-09-23T22:27:20.269Z,19452.09
2022-09-23T22:30:06.673Z,19415.50
2022-09-23T22:32:46.109Z,19393.16
2022-09-23T22:35:18.233Z,19407.38
2022-09-23T22:37:47.954Z,19421.63
2022-09-23T22:40:17.583Z,19415.50
2022-09-23T22:42:46.596Z,19360.66
2022-09-23T22:45:15.040Z,19346.44
2022-09-23T22:47:45.252Z,19344.41
2022-09-23T22:50:15.128Z,19334.22
2022-09-23T22:52:43.572Z,19338.28
2022-09-23T22:55:12.812Z,19389.09
2022-09-23T22:57:42.221Z,19332.19
2022-09-23T23:00:12.661Z,19311.88
2022-09-23T23:02:42.243Z,19326.09
2022-09-23T23:05:10.741Z,19287.50
2022-09-23T23:07:38.885Z,19287.50
2022-09-23T23:10:10.075Z,19242.78
2022-09-23T23:12:40.053Z,19285.47
2022-09-23T23:15:12.830Z,19281.41
2022-09-23T23:17:43.384Z,19281.41
2022-09-23T23:20:11.689Z,19240.75
2022-09-23T23:22:39.700Z,19238.72
2022-09-23T23:25:09.626Z,19257.00
2022-09-23T23:27:37.645Z,19226.53
2022-09-23T23:30:08.239Z,19240.75
2022-09-23T23:32:37.689Z,19265.13
2022-09-23T23:35:07.367Z,19171.66
2022-09-23T23:37:35.340Z,19161.50
2022-09-23T23:40:04.039Z,19194.03
2022-09-23T23:42:32.521Z,19200.13
2022-09-23T23:45:00.533Z,19204.19
2022-09-23T23:47:28.534Z,19165.56
2022-09-23T23:49:57.897Z,19161.50
2022-09-23T23:52:26.049Z,19135.09
2022-09-23T23:54:54.016Z,19141.19
2022-09-23T23:57:22.000Z,19131.03
2022-09-23T23:59:49.943Z,19133.06
